Time;durP1;ratioP1;P1;durP2;ratioP2;P2;SDS_P1;SDS_P2;PMS_P1;PMS_P2;Temp;Humidity;BMP_temperature;BMP_pressure;BME280_temperature;BME280_humidity;BME280_pressure;Samples;Min_cycle;Max_cycle;Signal;HPM_P1;HPM_P2
2020/12/25 00:02:09;;;;;;;2.50;0.60;;;22.70;34.60;;;;;;5003635;28;20034;-44
2020/12/25 00:04:35;;;;;;;3.63;0.65;;;22.70;34.60;;;;;;5001275;28;20038;-49
2020/12/25 00:07:03;;;;;;;2.13;0.70;;;22.70;34.50;;;;;;5001938;28;20030;-50
2020/12/25 00:09:29;;;;;;;2.15;0.80;;;22.70;34.50;;;;;;5000100;28;20026;-48
2020/12/25 00:11:55;;;;;;;2.08;0.73;;;22.70;34.50;;;;;;4998290;28;20045;-48
2020/12/25 00:14:21;;;;;;;2.85;0.90;;;22.70;34.50;;;;;;5003416;28;20180;-49
2020/12/25 00:16:46;;;;;;;2.08;0.77;;;22.60;34.40;;;;;;5002744;28;20062;-46
2020/12/25 00:19:12;;;;;;;2.03;0.80;;;22.70;34.50;;;;;;5004422;28;20046;-48
2020/12/25 00:21:38;;;;;;;2.22;0.90;;;22.60;34.40;;;;;;5005072;28;20042;-45
2020/12/25 00:24:04;;;;;;;1.60;0.70;;;22.60;34.40;;;;;;5006193;28;20365;-47
2020/12/25 00:26:31;;;;;;;1.92;0.70;;;22.60;34.40;;;;;;5007255;28;20026;-46
2020/12/25 00:28:59;;;;;;;1.08;0.50;;;22.60;34.40;;;;;;5005241;28;20041;-49
2020/12/25 00:31:26;;;;;;;2.83;0.65;;;22.60;34.40;;;;;;5000562;28;20033;-49
2020/12/25 00:33:52;;;;;;;2.00;0.80;;;22.60;34.40;;;;;;5003781;28;20335;-50
2020/12/25 00:36:45;;;;;;;2.08;0.88;;;22.60;34.40;;;;;;5004059;28;20018;-49
2020/12/25 00:39:14;;;;;;;1.35;0.50;;;22.50;34.40;;;;;;4991784;28;20053;-48
2020/12/25 00:41:44;;;;;;;1.55;0.57;;;22.60;34.50;;;;;;5004579;28;20033;-46
2020/12/25 00:44:10;;;;;;;4.47;0.68;;;22.50;34.50;;;;;;5009208;28;20033;-52
2020/12/25 00:46:37;;;;;;;2.85;0.73;;;22.60;34.60;;;;;;5009894;28;20038;-44
2020/12/25 00:49:04;;;;;;;1.70;0.68;;;22.50;34.50;;;;;;5010523;28;20346;-47
2020/12/25 00:51:30;;;;;;;3.17;0.70;;;22.50;34.40;;;;;;4989804;28;20030;-47
2020/12/25 00:53:55;;;;;;;2.55;0.90;;;22.50;34.50;;;;;;4987023;28;20476;-50
2020/12/25 00:56:29;;;;;;;2.13;0.80;;;22.50;34.40;;;;;;4987828;28;20088;-45
2020/12/25 00:58:55;;;;;;;1.40;0.68;;;22.50;34.40;;;;;;4986737;28;20109;-45
2020/12/25 01:01:27;;;;;;;1.17;0.60;;;22.50;34.40;;;;;;4988097;28;20038;-47
2020/12/25 01:03:52;;;;;;;1.98;0.60;;;22.50;34.40;;;;;;5000628;28;20034;-46
2020/12/25 01:06:20;;;;;;;1.63;0.77;;;22.40;34.40;;;;;;5007296;28;20097;-48
2020/12/25 01:08:48;;;;;;;2.88;0.80;;;22.40;34.40;;;;;;5006001;28;20034;-49
2020/12/25 01:11:16;;;;;;;1.15;0.55;;;22.40;34.40;;;;;;5008026;28;20023;-47
2020/12/25 01:13:43;;;;;;;1.20;0.70;;;22.40;34.40;;;;;;5005238;28;20433;-49
2020/12/25 01:16:18;;;;;;;1.30;0.65;;;22.40;34.40;;;;;;5007686;28;20042;-47
2020/12/25 01:18:49;;;;;;;1.52;0.68;;;22.40;34.40;;;;;;5004217;28;20113;-51
2020/12/25 01:21:16;;;;;;;1.38;0.70;;;22.40;34.40;;;;;;4986097;28;20042;-47
2020/12/25 01:23:42;;;;;;;1.63;0.80;;;22.40;34.40;;;;;;5002155;28;20488;-49
2020/12/25 01:26:09;;;;;;;2.65;0.80;;;22.40;34.40;;;;;;5006008;28;20025;-45
2020/12/25 01:28:36;;;;;;;1.50;0.60;;;22.40;34.40;;;;;;5008496;28;20030;-48
2020/12/25 01:31:03;;;;;;;2.13;0.70;;;22.40;34.60;;;;;;5006411;28;20041;-47
2020/12/25 01:33:33;;;;;;;2.00;0.80;;;22.40;34.40;;;;;;5005599;28;20427;-46
2020/12/25 01:35:59;;;;;;;1.15;0.70;;;22.30;34.30;;;;;;5005322;28;20030;-50
2020/12/25 01:38:25;;;;;;;1.77;0.60;;;22.30;34.40;;;;;;5004049;28;20080;-47
2020/12/25 01:40:51;;;;;;;1.98;0.70;;;22.30;34.40;;;;;;5004168;28;20404;-50
2020/12/25 01:43:17;;;;;;;1.23;0.60;;;22.30;34.40;;;;;;5005980;28;20325;-46
2020/12/25 01:45:43;;;;;;;1.90;0.60;;;22.30;34.40;;;;;;5004767;28;20027;-48
2020/12/25 01:48:09;;;;;;;2.92;0.77;;;22.30;34.40;;;;;;4999760;28;20018;-47
2020/12/25 01:50:36;;;;;;;1.90;0.57;;;22.30;34.40;;;;;;5005605;28;20038;-48
2020/12/25 01:53:04;;;;;;;2.22;0.63;;;22.30;34.40;;;;;;5005036;28;20018;-47
2020/12/25 01:55:33;;;;;;;1.15;0.70;;;22.30;34.50;;;;;;5006073;28;20105;-48
2020/12/25 01:58:00;;;;;;;2.95;0.90;;;22.30;34.60;;;;;;5006250;28;20026;-47
2020/12/25 02:00:27;;;;;;;1.65;0.60;;;22.30;34.60;;;;;;5004335;28;20045;-44
2020/12/25 02:02:53;;;;;;;1.88;0.70;;;22.20;34.50;;;;;;5003735;28;20072;-46
2020/12/25 02:05:20;;;;;;;2.70;0.90;;;22.20;34.50;;;;;;5003114;28;20094;-43
2020/12/25 02:07:46;;;;;;;2.78;0.70;;;22.20;34.50;;;;;;5003992;28;20025;-44
2020/12/25 02:10:13;;;;;;;1.70;0.60;;;22.20;34.40;;;;;;5003418;28;20022;-48
2020/12/25 02:12:40;;;;;;;2.17;0.52;;;22.20;34.40;;;;;;5001096;28;20062;-46
2020/12/25 02:15:07;;;;;;;1.33;0.60;;;22.20;34.40;;;;;;4999559;28;20053;-49
2020/12/25 02:17:33;;;;;;;1.40;0.60;;;22.20;34.40;;;;;;5005166;28;20073;-46
2020/12/25 02:20:02;;;;;;;2.15;0.52;;;22.20;34.40;;;;;;5003052;28;20440;-45
2020/12/25 02:22:31;;;;;;;2.03;0.57;;;22.20;34.50;;;;;;5000031;28;20044;-51
2020/12/25 02:24:56;;;;;;;0.88;0.40;;;22.10;34.40;;;;;;5002555;28;20703;-46
2020/12/25 02:27:22;;;;;;;1.70;0.57;;;22.20;34.50;;;;;;5001031;28;20024;-50
2020/12/25 02:29:48;;;;;;;1.55;0.75;;;22.10;34.50;;;;;;5003133;28;20077;-47
2020/12/25 02:32:14;;;;;;;2.33;0.70;;;22.10;34.50;;;;;;5004326;28;20449;-48
2020/12/25 02:34:39;;;;;;;1.42;0.70;;;22.10;34.50;;;;;;5003336;28;20049;-49
2020/12/25 02:37:05;;;;;;;1.42;0.60;;;22.10;34.50;;;;;;4982829;28;20026;-46
2020/12/25 02:39:31;;;;;;;1.75;0.50;;;22.10;34.50;;;;;;4988171;28;20025;-46
2020/12/25 02:41:56;;;;;;;1.15;0.57;;;22.10;34.50;;;;;;5004115;28;20056;-46
2020/12/25 02:44:22;;;;;;;2.25;0.68;;;22.10;34.60;;;;;;5001489;28;20033;-46
2020/12/25 02:46:48;;;;;;;4.22;0.70;;;22.10;34.50;;;;;;4998529;28;20044;-49
2020/12/25 02:49:14;;;;;;;1.13;0.55;;;22.10;34.60;;;;;;5003701;28;20084;-48
2020/12/25 02:51:39;;;;;;;2.00;0.60;;;22.10;34.60;;;;;;5004586;28;20113;-47
2020/12/25 02:54:05;;;;;;;1.55;0.57;;;22.10;34.60;;;;;;5002286;28;20409;-45
2020/12/25 02:56:31;;;;;;;1.10;0.40;;;22.10;34.60;;;;;;4998773;28;20410;-47
2020/12/25 02:58:57;;;;;;;1.63;0.60;;;22.10;34.60;;;;;;5000083;28;20350;-50
2020/12/25 03:01:22;;;;;;;1.92;0.60;;;22.00;34.60;;;;;;5003362;28;20105;-49
2020/12/25 03:03:48;;;;;;;1.83;0.68;;;22.00;34.50;;;;;;5008110;28;20068;-47
2020/12/25 03:06:14;;;;;;;1.40;0.60;;;22.00;34.60;;;;;;5002166;28;20125;-49
2020/12/25 03:08:40;;;;;;;2.38;0.52;;;22.00;34.60;;;;;;5005351;28;20092;-45
2020/12/25 03:11:05;;;;;;;1.50;0.60;;;22.00;34.60;;;;;;5003785;28;20037;-45
2020/12/25 03:13:31;;;;;;;1.58;0.57;;;22.00;34.70;;;;;;5005290;28;20133;-47
2020/12/25 03:15:57;;;;;;;1.48;0.50;;;22.00;34.70;;;;;;5002817;28;20070;-47
2020/12/25 03:18:23;;;;;;;2.75;0.70;;;22.00;34.70;;;;;;5002188;28;20072;-46
2020/12/25 03:20:49;;;;;;;0.77;0.45;;;22.00;34.70;;;;;;5000648;28;20100;-44
2020/12/25 03:23:14;;;;;;;1.23;0.40;;;22.00;34.70;;;;;;5001459;28;20030;-47
2020/12/25 03:25:41;;;;;;;1.75;0.60;;;22.00;34.70;;;;;;5006990;28;20033;-47
2020/12/25 03:28:07;;;;;;;1.52;0.60;;;22.00;34.70;;;;;;4998432;28;20294;-53
2020/12/25 03:30:33;;;;;;;1.35;0.50;;;22.00;34.70;;;;;;5003090;28;20026;-45
2020/12/25 03:32:59;;;;;;;2.22;0.70;;;22.00;34.70;;;;;;5003914;28;20349;-45
2020/12/25 03:35:25;;;;;;;2.42;0.60;;;22.00;34.70;;;;;;5002122;28;20058;-47
2020/12/25 03:37:50;;;;;;;1.33;0.60;;;21.90;34.70;;;;;;5008439;28;20131;-45
2020/12/25 03:40:17;;;;;;;1.20;0.50;;;21.90;34.70;;;;;;5001968;28;20050;-49
2020/12/25 03:42:43;;;;;;;1.17;0.45;;;21.90;34.70;;;;;;5000560;28;20026;-46
2020/12/25 03:45:09;;;;;;;1.05;0.60;;;21.90;34.60;;;;;;5002123;28;20338;-46
2020/12/25 03:47:35;;;;;;;1.35;0.50;;;21.90;34.60;;;;;;5004647;28;20185;-46
2020/12/25 03:50:00;;;;;;;1.55;0.50;;;21.90;34.70;;;;;;5003492;28;20495;-48
2020/12/25 03:52:26;;;;;;;1.90;0.57;;;21.90;34.70;;;;;;5003307;28;20465;-46
2020/12/25 03:54:52;;;;;;;1.02;0.40;;;21.90;34.70;;;;;;5008001;28;20476;-48
2020/12/25 03:57:18;;;;;;;0.77;0.40;;;21.90;34.70;;;;;;5007978;28;20027;-48
2020/12/25 03:59:43;;;;;;;1.50;0.50;;;21.90;34.80;;;;;;5007761;28;20030;-49
2020/12/25 04:02:09;;;;;;;2.00;0.60;;;21.80;34.70;;;;;;5011038;28;20109;-46
2020/12/25 04:04:35;;;;;;;1.02;0.50;;;21.80;34.70;;;;;;5006137;28;20054;-47
2020/12/25 04:07:01;;;;;;;1.63;0.65;;;21.80;34.70;;;;;;4991638;28;20066;-46
2020/12/25 04:09:27;;;;;;;2.10;0.60;;;21.80;34.70;;;;;;5007670;28;20026;-48
2020/12/25 04:11:52;;;;;;;0.55;0.20;;;21.80;34.70;;;;;;5004625;28;20023;-48
2020/12/25 04:14:19;;;;;;;0.65;0.30;;;21.80;34.70;;;;;;5004567;28;20434;-46
2020/12/25 04:16:45;;;;;;;0.77;0.30;;;21.80;34.70;;;;;;5009745;28;20465;-45
2020/12/25 04:19:11;;;;;;;1.38;0.50;;;21.80;34.70;;;;;;5006904;28;20034;-50
2020/12/25 04:21:39;;;;;;;1.55;0.60;;;21.80;34.70;;;;;;5004121;28;20366;-47
2020/12/25 04:24:05;;;;;;;0.98;0.30;;;21.80;34.70;;;;;;5005779;28;20455;-47
2020/12/25 04:26:30;;;;;;;0.57;0.30;;;21.80;34.80;;;;;;5004621;28;20109;-46
2020/12/25 04:28:56;;;;;;;2.10;0.47;;;21.80;34.70;;;;;;5008611;28;20022;-47
2020/12/25 04:31:26;;;;;;;1.20;0.40;;;21.80;34.80;;;;;;5004428;28;20042;-49
2020/12/25 04:33:53;;;;;;;1.40;0.57;;;21.80;34.80;;;;;;5004496;28;20054;-50
2020/12/25 04:36:19;;;;;;;1.20;0.30;;;21.80;34.80;;;;;;4984926;28;20048;-46
2020/12/25 04:38:45;;;;;;;0.50;0.20;;;21.80;34.80;;;;;;5004820;28;20052;-47
2020/12/25 04:41:11;;;;;;;1.80;0.40;;;21.70;34.80;;;;;;5006623;28;20054;-50
2020/12/25 04:43:41;;;;;;;0.73;0.50;;;21.80;34.90;;;;;;5004542;28;20057;-45
2020/12/25 04:46:08;;;;;;;1.52;0.50;;;21.70;34.80;;;;;;5003198;28;20433;-44
2020/12/25 04:48:37;;;;;;;1.15;0.32;;;21.70;34.80;;;;;;5006621;28;20034;-46
2020/12/25 04:51:04;;;;;;;1.17;0.40;;;21.70;35.00;;;;;;5003789;28;20092;-46
2020/12/25 04:53:31;;;;;;;0.90;0.30;;;21.70;35.20;;;;;;5006773;28;20035;-49
2020/12/25 04:55:59;;;;;;;1.75;0.47;;;21.70;35.10;;;;;;5009727;28;20026;-51
2020/12/25 04:58:25;;;;;;;1.30;0.40;;;21.70;35.10;;;;;;5005491;28;20070;-46
2020/12/25 05:01:08;;;;;;;1.33;0.30;;;21.70;35.20;;;;;;5008025;28;20473;-49
2020/12/25 05:03:41;;;;;;;0.68;0.38;;;21.70;35.10;;;;;;5005627;28;20037;-46
2020/12/25 05:06:18;;;;;;;2.03;0.60;;;21.70;35.10;;;;;;5007804;28;20434;-46
2020/12/25 05:08:51;;;;;;;0.75;0.20;;;21.70;35.20;;;;;;5002615;28;20033;-47
2020/12/25 05:11:21;;;;;;;0.77;0.30;;;21.60;35.30;;;;;;5008513;28;20042;-46
2020/12/25 05:13:49;;;;;;;0.80;0.30;;;21.70;35.40;;;;;;5003722;28;20093;-45
2020/12/25 05:16:17;;;;;;;0.77;0.28;;;21.60;36.00;;;;;;5000818;28;20420;-47
2020/12/25 05:18:45;;;;;;;0.43;0.30;;;21.60;35.30;;;;;;5009232;28;20417;-47
2020/12/25 05:21:15;;;;;;;1.23;0.40;;;21.60;35.30;;;;;;5010762;28;20042;-47
2020/12/25 05:23:43;;;;;;;0.80;0.28;;;21.60;35.30;;;;;;5001567;28;20041;-46
2020/12/25 05:26:11;;;;;;;0.65;0.30;;;21.60;35.30;;;;;;5003679;28;20030;-46
2020/12/25 05:28:39;;;;;;;0.55;0.20;;;21.60;35.30;;;;;;5003739;28;20157;-48
2020/12/25 05:31:07;;;;;;;0.90;0.30;;;21.60;36.00;;;;;;5000692;28;20117;-49
2020/12/25 05:33:34;;;;;;;0.77;0.38;;;21.60;35.30;;;;;;5007930;28;20034;-44
2020/12/25 05:36:05;;;;;;;1.17;0.40;;;21.60;35.30;;;;;;5000504;28;20713;-45
2020/12/25 05:38:31;;;;;;;0.52;0.20;;;21.60;35.30;;;;;;5004947;28;20050;-46
2020/12/25 05:41:00;;;;;;;0.52;0.30;;;21.60;35.30;;;;;;5002809;28;20591;-48
2020/12/25 05:43:26;;;;;;;1.17;0.40;;;21.60;35.30;;;;;;5004190;28;20035;-46
2020/12/25 05:45:52;;;;;;;1.08;0.30;;;21.60;35.40;;;;;;5003658;28;20042;-45
2020/12/25 05:48:18;;;;;;;0.75;0.40;;;21.60;35.30;;;;;;5008111;28;20018;-48
2020/12/25 05:50:44;;;;;;;0.32;0.20;;;21.50;35.40;;;;;;5007142;28;20092;-47
2020/12/25 05:53:10;;;;;;;0.52;0.17;;;21.60;35.50;;;;;;5003651;28;20346;-47
2020/12/25 05:55:37;;;;;;;1.13;0.30;;;21.60;35.50;;;;;;5007543;28;20044;-46
2020/12/25 05:58:04;;;;;;;0.88;0.30;;;21.50;35.50;;;;;;5003792;28;20096;-47
2020/12/25 06:00:31;;;;;;;2.58;0.30;;;21.50;35.40;;;;;;5004138;28;20077;-46
2020/12/25 06:02:57;;;;;;;0.15;0.10;;;21.50;35.40;;;;;;5000611;28;20087;-46
2020/12/25 06:05:25;;;;;;;1.27;0.20;;;21.50;35.40;;;;;;5006504;28;20099;-47
2020/12/25 06:07:58;;;;;;;0.43;0.22;;;21.50;35.50;;;;;;5000948;28;20155;-48
2020/12/25 06:10:28;;;;;;;0.77;0.30;;;21.50;35.50;;;;;;5004160;28;20030;-45
2020/12/25 06:12:56;;;;;;;0.55;0.22;;;21.50;35.50;;;;;;5003820;28;20403;-49
2020/12/25 06:15:24;;;;;;;0.20;0.17;;;21.50;35.50;;;;;;5004028;28;20046;-46
2020/12/25 06:18:14;;;;;;;0.60;0.28;;;21.50;35.60;;;;;;5004247;28;20029;-47
2020/12/25 06:20:56;;;;;;;1.30;0.30;;;21.50;35.50;;;;;;5003861;28;20370;-47
2020/12/25 06:23:26;;;;;;;0.88;0.30;;;21.40;35.50;;;;;;5001285;28;20128;-48
2020/12/25 06:25:52;;;;;;;0.75;0.38;;;21.50;35.60;;;;;;5002927;28;20034;-47
2020/12/25 06:28:19;;;;;;;1.10;0.52;;;21.40;35.40;;;;;;5004525;28;20089;-46
2020/12/25 06:30:45;;;;;;;0.95;0.20;;;21.40;35.50;;;;;;5006354;28;20030;-48
2020/12/25 06:33:11;;;;;;;0.85;0.32;;;21.50;35.70;;;;;;4984251;28;20458;-45
2020/12/25 06:35:45;;;;;;;0.63;0.40;;;21.40;35.80;;;;;;4999907;28;20052;-47
2020/12/25 06:38:16;;;;;;;1.38;0.25;;;21.40;35.70;;;;;;4999806;28;20500;-46
2020/12/25 06:40:43;;;;;;;0.50;0.20;;;21.40;35.70;;;;;;5008943;28;20382;-45
2020/12/25 06:43:16;;;;;;;0.80;0.30;;;21.40;35.70;;;;;;5004520;28;20048;-45
2020/12/25 06:45:44;;;;;;;0.73;0.22;;;21.40;35.70;;;;;;5002534;28;20610;-46
2020/12/25 06:48:14;;;;;;;0.77;0.30;;;21.40;35.70;;;;;;5002937;28;20030;-46
2020/12/25 06:50:45;;;;;;;0.93;0.30;;;21.40;35.70;;;;;;5001531;28;20113;-46
2020/12/25 06:53:41;;;;;;;1.40;0.35;;;21.40;35.70;;;;;;5002863;28;20026;-45
2020/12/25 06:56:10;;;;;;;;;;;21.40;35.60;;;;;;5005875;28;20032;-46
2020/12/25 06:58:43;;;;;;;0.50;0.30;;;21.40;35.60;;;;;;5006680;28;20361;-49
2020/12/25 07:01:17;;;;;;;1.23;0.40;;;21.40;35.60;;;;;;5002376;28;20048;-47
2020/12/25 07:03:43;;;;;;;0.63;0.30;;;21.40;35.60;;;;;;4999943;28;20034;-46
2020/12/25 07:06:11;;;;;;;0.95;0.30;;;21.30;35.60;;;;;;4999903;28;20041;-45
2020/12/25 07:08:48;;;;;;;0.30;0.20;;;21.30;35.60;;;;;;5003168;28;20058;-48
2020/12/25 07:11:17;;;;;;;0.65;0.40;;;21.30;35.50;;;;;;5002677;28;20040;-44
2020/12/25 07:13:43;;;;;;;0.85;0.28;;;21.30;35.60;;;;;;5005163;28;20084;-49
2020/12/25 07:16:09;;;;;;;1.30;0.40;;;21.30;35.70;;;;;;5006803;28;20074;-47
2020/12/25 07:18:35;;;;;;;1.23;0.40;;;21.30;35.60;;;;;;5002304;28;20378;-48
2020/12/25 07:21:03;;;;;;;1.10;0.38;;;21.30;35.60;;;;;;5001656;28;20038;-47
2020/12/25 07:23:29;;;;;;;1.10;0.32;;;21.30;35.60;;;;;;5000291;28;20039;-48
2020/12/25 07:25:59;;;;;;;1.25;0.40;;;21.30;35.50;;;;;;5000899;28;20057;-47
2020/12/25 07:28:29;;;;;;;1.35;0.30;;;21.30;35.50;;;;;;4999783;28;20058;-46
2020/12/25 07:30:56;;;;;;;1.08;0.43;;;21.30;35.50;;;;;;5003149;28;20041;-47
2020/12/25 07:33:22;;;;;;;1.60;0.57;;;21.30;35.50;;;;;;5001474;28;20061;-47
2020/12/25 07:35:49;;;;;;;1.75;0.50;;;21.30;35.50;;;;;;5004472;28;20125;-49
2020/12/25 07:38:16;;;;;;;1.48;0.57;;;21.30;35.50;;;;;;5002563;28;20057;-49
2020/12/25 07:40:43;;;;;;;0.60;0.30;;;21.30;35.50;;;;;;5002320;28;20121;-48
2020/12/25 07:43:12;;;;;;;1.95;0.75;;;21.30;35.60;;;;;;5002912;28;20037;-53
2020/12/25 07:45:39;;;;;;;2.20;0.60;;;21.30;35.60;;;;;;4988970;28;20393;-46
2020/12/25 07:48:06;;;;;;;1.25;0.47;;;21.20;35.50;;;;;;5004091;28;20118;-45
2020/12/25 07:50:37;;;;;;;2.20;0.80;;;21.30;35.60;;;;;;5002558;28;20097;-46
2020/12/25 07:53:10;;;;;;;1.50;0.50;;;21.30;35.60;;;;;;5003079;28;20103;-44
2020/12/25 07:55:36;;;;;;;1.10;0.45;;;21.30;35.60;;;;;;5003565;28;20027;-45
2020/12/25 07:58:02;;;;;;;1.33;0.45;;;21.20;35.60;;;;;;5003374;28;20454;-50
2020/12/25 08:00:29;;;;;;;1.38;0.63;;;21.20;35.60;;;;;;5002419;28;20034;-50
2020/12/25 08:02:55;;;;;;;2.50;0.60;;;21.30;36.20;;;;;;5002072;28;20121;-49
2020/12/25 08:05:21;;;;;;;0.80;0.40;;;21.30;36.70;;;;;;5003571;28;20117;-48
2020/12/25 08:07:47;;;;;;;2.20;0.50;;;21.30;37.10;;;;;;5003586;28;20110;-51
2020/12/25 08:10:16;;;;;;;2.05;0.60;;;21.40;37.40;;;;;;5000157;28;20045;-50
2020/12/25 08:12:49;;;;;;;1.42;0.60;;;21.40;37.50;;;;;;5002838;28;20076;-51
2020/12/25 08:15:17;;;;;;;1.52;0.60;;;21.40;37.50;;;;;;5009523;28;20069;-50
2020/12/25 08:17:47;;;;;;;1.48;0.50;;;21.50;37.60;;;;;;5027369;28;20074;-54
2020/12/25 08:20:13;;;;;;;1.20;0.47;;;21.60;37.60;;;;;;5017795;28;20034;-52
2020/12/25 08:22:38;;;;;;;1.80;0.50;;;21.60;37.50;;;;;;5018015;28;20116;-52
2020/12/25 08:25:05;;;;;;;2.03;0.80;;;21.70;37.50;;;;;;5021009;28;20053;-52
2020/12/25 08:27:32;;;;;;;1.58;0.60;;;21.70;37.40;;;;;;5022063;28;20422;-50
2020/12/25 08:30:00;;;;;;;1.67;0.65;;;21.80;37.40;;;;;;5022626;28;20045;-48
2020/12/25 08:32:29;;;;;;;3.13;0.80;;;21.90;37.30;;;;;;5018895;28;20089;-51
2020/12/25 08:35:15;;;;;;;3.30;1.00;;;22.00;37.20;;;;;;5023990;28;20462;-54
2020/12/25 08:38:02;;;;;;;2.55;0.60;;;22.10;37.00;;;;;;5020819;28;20065;-53
2020/12/25 08:40:33;;;;;;;2.70;0.73;;;22.20;36.80;;;;;;5027457;28;20053;-54
2020/12/25 08:43:06;;;;;;;1.48;0.55;;;22.30;36.70;;;;;;5007064;28;20417;-53
2020/12/25 08:45:32;;;;;;;1.23;0.47;;;22.40;36.50;;;;;;5025291;28;20124;-54
2020/12/25 08:48:10;;;;;;;2.45;0.80;;;22.50;36.40;;;;;;5022689;28;20105;-55
2020/12/25 08:50:37;;;;;;;1.55;0.80;;;22.60;36.30;;;;;;5026861;28;20040;-51
2020/12/25 08:53:32;;;;;;;3.55;0.50;;;22.70;36.10;;;;;;5026722;28;20424;-52
2020/12/25 08:56:11;;;;;;;1.92;0.60;;;22.80;36.00;;;;;;5014219;28;20446;-52
2020/12/25 08:58:37;;;;;;;1.27;0.60;;;22.90;35.90;;;;;;5025410;28;20108;-54
2020/12/25 09:01:04;;;;;;;1.38;0.60;;;23.00;35.80;;;;;;5026130;28;20269;-53
2020/12/25 09:03:42;;;;;;;2.53;0.55;;;23.10;35.60;;;;;;5025683;28;20721;-53
2020/12/25 09:06:09;;;;;;;1.52;0.60;;;23.20;35.50;;;;;;5024623;28;20053;-50
2020/12/25 09:08:36;;;;;;;2.33;0.60;;;23.30;35.40;;;;;;5027695;28;20040;-50
2020/12/25 09:11:06;;;;;;;2.70;0.75;;;23.30;35.20;;;;;;5022214;28;20034;-51
2020/12/25 09:13:32;;;;;;;2.75;0.90;;;23.40;35.10;;;;;;5023615;28;20032;-52
2020/12/25 09:15:58;;;;;;;1.85;0.70;;;23.50;35.00;;;;;;5015443;28;20046;-53
2020/12/25 09:18:23;;;;;;;1.77;0.63;;;23.60;34.80;;;;;;5004692;28;20788;-50
2020/12/25 09:20:49;;;;;;;2.42;0.80;;;23.60;34.70;;;;;;5000993;28;20048;-50
2020/12/25 09:23:15;;;;;;;1.67;0.50;;;23.70;34.60;;;;;;5005392;28;20034;-49
2020/12/25 09:25:41;;;;;;;1.42;0.52;;;23.80;34.50;;;;;;5010581;28;20026;-47
2020/12/25 09:28:06;;;;;;;2.17;0.65;;;23.80;34.40;;;;;;5013322;28;20034;-50
2020/12/25 09:30:32;;;;;;;2.38;0.80;;;23.90;34.40;;;;;;5012318;28;20037;-49
2020/12/25 09:32:58;;;;;;;1.60;0.57;;;23.90;34.30;;;;;;5010749;28;20160;-51
2020/12/25 09:35:24;;;;;;;1.92;0.65;;;24.00;34.30;;;;;;5012352;28;20037;-50
2020/12/25 09:37:49;;;;;;;2.53;0.77;;;24.00;34.20;;;;;;5009543;28;20434;-52
2020/12/25 09:40:16;;;;;;;1.83;0.50;;;24.10;34.10;;;;;;5010117;28;20397;-55
2020/12/25 09:42:42;;;;;;;1.50;0.60;;;24.10;34.00;;;;;;5011441;28;20068;-49
2020/12/25 09:45:07;;;;;;;1.23;0.57;;;24.10;33.90;;;;;;5005816;28;20389;-52
2020/12/25 09:47:33;;;;;;;1.98;0.77;;;24.20;33.90;;;;;;4985998;28;20034;-52
2020/12/25 09:49:59;;;;;;;1.73;0.60;;;24.20;33.80;;;;;;5003984;28;20091;-50
2020/12/25 09:52:24;;;;;;;2.95;0.85;;;24.20;33.70;;;;;;4985940;28;20066;-52
2020/12/25 09:54:50;;;;;;;1.50;0.75;;;24.20;33.60;;;;;;5003962;28;20030;-49
2020/12/25 09:57:16;;;;;;;1.67;0.70;;;24.30;33.50;;;;;;4998904;28;20104;-50
2020/12/25 09:59:42;;;;;;;1.70;0.70;;;24.30;33.50;;;;;;5002745;28;20385;-53
2020/12/25 10:02:07;;;;;;;1.40;0.63;;;24.30;33.40;;;;;;5006325;28;20049;-50
2020/12/25 10:04:33;;;;;;;1.80;0.60;;;24.30;33.20;;;;;;4999720;28;20117;-54
2020/12/25 10:06:59;;;;;;;2.05;0.57;;;24.30;33.20;;;;;;5003239;28;20041;-53
2020/12/25 10:09:25;;;;;;;2.05;0.88;;;24.40;33.10;;;;;;5006400;28;20120;-52
2020/12/25 10:11:55;;;;;;;1.63;0.63;;;24.40;33.10;;;;;;5003180;28;20072;-51
2020/12/25 10:14:21;;;;;;;1.30;0.60;;;24.30;32.90;;;;;;5004489;28;21087;-49
2020/12/25 10:16:47;;;;;;;1.45;0.60;;;24.40;32.80;;;;;;5009579;28;20060;-55
2020/12/25 10:19:12;;;;;;;2.15;0.60;;;24.40;32.80;;;;;;5003965;28;20018;-54
2020/12/25 10:21:38;;;;;;;1.60;0.57;;;24.40;32.70;;;;;;5001139;28;20050;-46
2020/12/25 10:24:04;;;;;;;1.27;0.60;;;24.40;32.70;;;;;;5004820;28;20421;-54
2020/12/25 10:26:29;;;;;;;1.48;0.40;;;24.40;32.60;;;;;;5003195;28;20029;-52
2020/12/25 10:28:55;;;;;;;1.73;0.60;;;24.40;32.50;;;;;;5004898;28;20043;-53
2020/12/25 10:31:21;;;;;;;1.70;0.57;;;24.40;32.50;;;;;;5005327;28;20032;-49
2020/12/25 10:33:47;;;;;;;2.55;0.70;;;24.40;32.50;;;;;;5004028;28;20037;-50
2020/12/25 10:36:12;;;;;;;1.63;0.68;;;24.40;32.50;;;;;;5001490;28;20027;-48
2020/12/25 10:38:38;;;;;;;1.50;0.70;;;24.40;32.40;;;;;;5001037;28;20034;-50
2020/12/25 10:41:06;;;;;;;3.75;0.98;;;24.40;32.40;;;;;;5000005;28;20153;-50
2020/12/25 10:43:31;;;;;;;1.52;0.75;;;24.40;32.40;;;;;;5000817;28;20053;-50
2020/12/25 10:45:57;;;;;;;1.13;0.50;;;24.40;32.40;;;;;;5000342;28;20030;-51
2020/12/25 10:48:24;;;;;;;1.20;0.40;;;24.40;32.40;;;;;;5005140;28;20120;-50
2020/12/25 10:50:49;;;;;;;1.85;0.57;;;24.30;32.30;;;;;;5006947;28;20037;-46
2020/12/25 10:53:15;;;;;;;1.63;0.65;;;24.30;32.30;;;;;;5005079;28;20029;-49
2020/12/25 10:55:41;;;;;;;1.00;0.35;;;24.30;32.30;;;;;;5003301;28;20034;-51
2020/12/25 10:58:06;;;;;;;0.93;0.55;;;24.30;32.40;;;;;;5002811;28;20037;-51
2020/12/25 11:00:32;;;;;;;1.35;0.55;;;24.30;32.40;;;;;;4999986;28;20118;-51
2020/12/25 11:02:58;;;;;;;1.38;0.50;;;24.30;32.40;;;;;;5003315;28;20084;-47
2020/12/25 11:05:24;;;;;;;1.10;0.40;;;24.30;32.40;;;;;;5005639;28;20105;-46
2020/12/25 11:07:49;;;;;;;1.60;0.60;;;24.20;32.30;;;;;;5003956;28;20026;-52
2020/12/25 11:10:16;;;;;;;1.50;0.60;;;24.20;32.40;;;;;;4999402;28;20450;-52
2020/12/25 11:12:41;;;;;;;1.48;0.60;;;24.20;32.40;;;;;;5002980;28;20041;-49
2020/12/25 11:15:07;;;;;;;1.55;0.40;;;24.20;32.40;;;;;;5004147;28;20025;-50
2020/12/25 11:17:33;;;;;;;1.63;0.52;;;24.20;32.40;;;;;;4981974;28;20034;-46
2020/12/25 11:19:59;;;;;;;0.98;0.50;;;24.20;32.40;;;;;;5003691;28;20029;-51
2020/12/25 11:22:24;;;;;;;1.00;0.40;;;24.20;32.30;;;;;;5000824;28;20122;-50
2020/12/25 11:24:50;;;;;;;1.33;0.40;;;24.20;32.20;;;;;;4996747;28;20463;-50
2020/12/25 11:27:16;;;;;;;0.60;0.30;;;24.20;32.20;;;;;;5005000;28;20031;-55
2020/12/25 11:29:42;;;;;;;0.65;0.30;;;24.20;32.20;;;;;;5004618;28;20101;-52
2020/12/25 11:32:08;;;;;;;0.50;0.20;;;24.20;32.30;;;;;;5005340;28;20399;-54
2020/12/25 11:34:34;;;;;;;2.17;0.40;;;24.20;32.40;;;;;;5003171;28;20087;-51
2020/12/25 11:36:59;;;;;;;0.73;0.40;;;24.20;32.50;;;;;;5003874;28;20057;-49
2020/12/25 11:39:25;;;;;;;1.80;0.68;;;24.20;32.50;;;;;;5008126;28;20031;-47
2020/12/25 11:41:51;;;;;;;0.95;0.40;;;24.20;32.60;;;;;;5008163;28;20038;-48
2020/12/25 11:44:16;;;;;;;1.17;0.43;;;24.20;32.70;;;;;;5002407;28;20032;-49
2020/12/25 11:46:42;;;;;;;0.93;0.43;;;24.20;32.90;;;;;;5003513;28;20084;-48
2020/12/25 11:49:08;;;;;;;0.80;0.32;;;24.20;33.20;;;;;;5000937;28;20477;-46
2020/12/25 11:51:34;;;;;;;1.77;0.60;;;24.20;33.40;;;;;;4999594;28;20037;-47
2020/12/25 11:54:01;;;;;;;1.55;0.50;;;24.20;33.60;;;;;;5000018;28;20445;-51
2020/12/25 11:56:29;;;;;;;1.92;0.45;;;24.20;33.80;;;;;;5003083;28;20112;-46
2020/12/25 11:58:56;;;;;;;1.20;0.40;;;24.20;33.90;;;;;;5007547;28;20113;-52
2020/12/25 12:01:22;;;;;;;0.73;0.40;;;24.20;34.00;;;;;;5002353;28;20042;-47
2020/12/25 12:03:48;;;;;;;0.90;0.50;;;24.20;34.10;;;;;;5003048;28;20026;-49
2020/12/25 12:06:22;;;;;;;0.70;0.50;;;24.20;34.20;;;;;;5000850;28;20038;-50
2020/12/25 12:08:48;;;;;;;;;;;24.20;34.30;;;;;;5007995;28;20484;-51
2020/12/25 12:11:14;;;;;;;1.23;0.40;;;24.10;34.20;;;;;;4999065;28;19918;-50
2020/12/25 12:13:40;;;;;;;1.30;0.38;;;24.20;34.40;;;;;;5004984;28;20124;-53
2020/12/25 12:16:16;;;;;;;2.47;0.55;;;24.20;34.40;;;;;;5002440;28;20469;-50
2020/12/25 12:18:42;;;;;;;2.10;0.43;;;24.10;34.40;;;;;;5007676;28;20104;-56
2020/12/25 12:21:09;;;;;;;1.88;0.68;;;24.20;34.50;;;;;;5006528;28;20512;-56
2020/12/25 12:23:35;;;;;;;1.33;0.60;;;24.20;34.70;;;;;;5005317;28;20026;-56
2020/12/25 12:26:01;;;;;;;1.50;0.47;;;24.20;34.70;;;;;;5008442;28;20037;-50
2020/12/25 12:28:27;;;;;;;2.38;0.50;;;24.20;34.70;;;;;;5003955;28;20033;-54
2020/12/25 12:30:53;;;;;;;1.38;0.50;;;24.20;34.70;;;;;;5006575;28;20448;-55
2020/12/25 12:33:18;;;;;;;0.60;0.43;;;24.30;34.70;;;;;;5003569;28;20460;-55
2020/12/25 12:35:44;;;;;;;1.98;0.68;;;24.30;34.60;;;;;;4990288;28;20054;-54
2020/12/25 12:38:10;;;;;;;1.75;0.57;;;24.30;34.60;;;;;;5001855;28;20058;-58
2020/12/25 12:40:36;;;;;;;1.00;0.55;;;24.30;34.50;;;;;;5005568;28;20065;-50
2020/12/25 12:43:01;;;;;;;0.85;0.47;;;24.30;34.50;;;;;;5010188;28;20029;-53
2020/12/25 12:45:27;;;;;;;1.30;0.50;;;24.30;34.50;;;;;;5009432;28;20049;-52
2020/12/25 12:47:53;;;;;;;1.92;0.60;;;24.40;34.60;;;;;;5009233;28;20039;-57
2020/12/25 12:50:19;;;;;;;1.27;0.47;;;24.30;34.60;;;;;;5005052;28;20026;-52